sensor_id;sensor_type;location;lat;lon;timestamp;pressure;altitude;pressure_sealevel;temperature;humidity
23166;BME280;11751;42.700;24.170;2022-10-16T00:01:12;94606.59;;;9.43;90.40
23166;BME280;11751;42.700;24.170;2022-10-16T00:03:39;94598.63;;;9.34;90.43
23166;BME280;11751;42.700;24.170;2022-10-16T00:06:06;94611.09;;;9.33;90.63
23166;BME280;11751;42.700;24.170;2022-10-16T00:08:33;94597.13;;;9.33;90.36
23166;BME280;11751;42.700;24.170;2022-10-16T00:11:05;94607.31;;;9.31;90.51
23166;BME280;11751;42.700;24.170;2022-10-16T00:13:33;94603.34;;;9.26;90.27
23166;BME280;11751;42.700;24.170;2022-10-16T00:15:59;94610.84;;;9.05;91.71
23166;BME280;11751;42.700;24.170;2022-10-16T00:18:26;94604.59;;;8.99;92.06
23166;BME280;11751;42.700;24.170;2022-10-16T00:20:51;94611.25;;;8.96;91.80
23166;BME280;11751;42.700;24.170;2022-10-16T00:23:17;94615.13;;;8.93;91.73
23166;BME280;11751;42.700;24.170;2022-10-16T00:25:42;94622.22;;;8.94;91.54
23166;BME280;11751;42.700;24.170;2022-10-16T00:28:08;94629.03;;;8.80;92.43
23166;BME280;11751;42.700;24.170;2022-10-16T00:30:33;94624.97;;;8.81;91.90
23166;BME280;11751;42.700;24.170;2022-10-16T00:32:59;94624.66;;;8.85;91.69
23166;BME280;11751;42.700;24.170;2022-10-16T00:35:24;94629.19;;;8.88;91.58
23166;BME280;11751;42.700;24.170;2022-10-16T00:37:50;94629.50;;;8.84;91.41
23166;BME280;11751;42.700;24.170;2022-10-16T00:40:16;94638.72;;;8.79;91.43
23166;BME280;11751;42.700;24.170;2022-10-16T00:42:41;94640.84;;;8.73;91.61
23166;BME280;11751;42.700;24.170;2022-10-16T00:45:08;94633.97;;;8.74;91.00
23166;BME280;11751;42.700;24.170;2022-10-16T00:47:37;94618.84;;;8.51;91.32
23166;BME280;11751;42.700;24.170;2022-10-16T00:50:18;94635.44;;;8.62;91.04
23166;BME280;11751;42.700;24.170;2022-10-16T00:52:48;94645.09;;;8.61;91.06
23166;BME280;11751;42.700;24.170;2022-10-16T00:55:15;94626.41;;;8.56;90.67
23166;BME280;11751;42.700;24.170;2022-10-16T00:57:41;94637.19;;;8.47;91.34
23166;BME280;11751;42.700;24.170;2022-10-16T01:00:09;94632.75;;;8.39;91.83
23166;BME280;11751;42.700;24.170;2022-10-16T01:02:35;94636.09;;;8.37;91.65
23166;BME280;11751;42.700;24.170;2022-10-16T01:05:01;94641.75;;;8.32;92.33
23166;BME280;11751;42.700;24.170;2022-10-16T01:07:50;94638.81;;;8.24;92.68
23166;BME280;11751;42.700;24.170;2022-10-16T01:10:38;94650.50;;;8.23;93.06
23166;BME280;11751;42.700;24.170;2022-10-16T01:13:07;94653.19;;;8.10;93.71
23166;BME280;11751;42.700;24.170;2022-10-16T01:15:54;94661.50;;;8.15;93.43
23166;BME280;11751;42.700;24.170;2022-10-16T01:19:40;94661.72;;;8.17;93.75
23166;BME280;11751;42.700;24.170;2022-10-16T01:21:46;94659.13;;;8.01;93.75
23166;BME280;11751;42.700;24.170;2022-10-16T01:24:31;94663.19;;;8.00;93.39
23166;BME280;11751;42.700;24.170;2022-10-16T01:32:39;94658.91;;;7.80;95.53
23166;BME280;11751;42.700;24.170;2022-10-16T01:40:36;94661.41;;;7.60;97.18
23166;BME280;11751;42.700;24.170;2022-10-16T01:43:10;94662.91;;;7.61;96.70
23166;BME280;11751;42.700;24.170;2022-10-16T01:45:37;94654.56;;;7.61;97.29
23166;BME280;11751;42.700;24.170;2022-10-16T01:48:05;94661.94;;;7.59;96.99
23166;BME280;11751;42.700;24.170;2022-10-16T01:50:37;94667.94;;;7.68;96.89
23166;BME280;11751;42.700;24.170;2022-10-16T01:53:05;94654.25;;;7.46;97.79
23166;BME280;11751;42.700;24.170;2022-10-16T01:55:38;94654.91;;;7.52;97.55
23166;BME280;11751;42.700;24.170;2022-10-16T01:58:09;94660.44;;;7.58;97.04
23166;BME280;11751;42.700;24.170;2022-10-16T02:00:38;94663.03;;;7.50;96.90
23166;BME280;11751;42.700;24.170;2022-10-16T02:03:05;94660.44;;;7.58;96.46
23166;BME280;11751;42.700;24.170;2022-10-16T02:05:41;94675.47;;;7.49;96.66
23166;BME280;11751;42.700;24.170;2022-10-16T02:08:08;94684.31;;;7.29;98.02
23166;BME280;11751;42.700;24.170;2022-10-16T02:10:35;94666.19;;;7.41;97.96
23166;BME280;11751;42.700;24.170;2022-10-16T02:13:17;94664.31;;;7.49;97.08
23166;BME280;11751;42.700;24.170;2022-10-16T02:15:44;94668.34;;;7.54;96.11
23166;BME280;11751;42.700;24.170;2022-10-16T02:18:10;94668.84;;;7.52;95.37
23166;BME280;11751;42.700;24.170;2022-10-16T02:20:51;94665.84;;;7.50;95.43
23166;BME280;11751;42.700;24.170;2022-10-16T02:23:24;94665.84;;;7.50;95.05
23166;BME280;11751;42.700;24.170;2022-10-16T02:25:52;94679.75;;;7.50;94.67
23166;BME280;11751;42.700;24.170;2022-10-16T02:28:23;94670.03;;;7.38;94.98
23166;BME280;11751;42.700;24.170;2022-10-16T02:30:58;94676.88;;;7.37;94.61
23166;BME280;11751;42.700;24.170;2022-10-16T02:33:25;94678.59;;;7.40;94.01
23166;BME280;11751;42.700;24.170;2022-10-16T02:35:53;94676.66;;;7.35;93.50
23166;BME280;11751;42.700;24.170;2022-10-16T02:38:20;94674.22;;;7.26;94.35
23166;BME280;11751;42.700;24.170;2022-10-16T02:40:46;94691.38;;;7.30;94.41
23166;BME280;11751;42.700;24.170;2022-10-16T02:43:12;94698.78;;;7.22;94.54
23166;BME280;11751;42.700;24.170;2022-10-16T02:45:38;94698.06;;;7.22;94.11
23166;BME280;11751;42.700;24.170;2022-10-16T02:48:04;94697.63;;;7.12;94.14
23166;BME280;11751;42.700;24.170;2022-10-16T02:50:30;94688.25;;;7.15;93.29
23166;BME280;11751;42.700;24.170;2022-10-16T02:52:55;94678.19;;;7.07;92.78
23166;BME280;11751;42.700;24.170;2022-10-16T02:55:21;94690.19;;;6.96;93.42
23166;BME280;11751;42.700;24.170;2022-10-16T02:57:46;94683.69;;;6.88;93.75
23166;BME280;11751;42.700;24.170;2022-10-16T03:00:19;94692.38;;;6.79;95.01
23166;BME280;11751;42.700;24.170;2022-10-16T03:02:45;94697.06;;;6.61;97.37
23166;BME280;11751;42.700;24.170;2022-10-16T03:05:11;94709.22;;;6.58;98.19
23166;BME280;11751;42.700;24.170;2022-10-16T03:07:37;94691.16;;;6.35;100.00
23166;BME280;11751;42.700;24.170;2022-10-16T03:10:02;94703.16;;;6.54;100.00
23166;BME280;11751;42.700;24.170;2022-10-16T03:12:28;94696.34;;;6.55;100.00
23166;BME280;11751;42.700;24.170;2022-10-16T03:14:55;94698.09;;;6.58;99.74
23166;BME280;11751;42.700;24.170;2022-10-16T03:17:21;94703.66;;;6.58;99.51
23166;BME280;11751;42.700;24.170;2022-10-16T03:19:47;94700.66;;;6.50;99.43
23166;BME280;11751;42.700;24.170;2022-10-16T03:22:12;94692.94;;;6.32;100.00
23166;BME280;11751;42.700;24.170;2022-10-16T03:24:38;94700.97;;;6.41;100.00
23166;BME280;11751;42.700;24.170;2022-10-16T03:27:03;94687.59;;;6.40;100.00
23166;BME280;11751;42.700;24.170;2022-10-16T03:29:28;94691.00;;;6.57;100.00
23166;BME280;11751;42.700;24.170;2022-10-16T03:31:55;94691.25;;;6.59;99.79
23166;BME280;11751;42.700;24.170;2022-10-16T03:34:21;94687.75;;;6.53;99.51
23166;BME280;11751;42.700;24.170;2022-10-16T03:36:47;94698.78;;;6.64;99.13
23166;BME280;11751;42.700;24.170;2022-10-16T03:39:13;94704.03;;;6.73;98.34
23166;BME280;11751;42.700;24.170;2022-10-16T03:41:38;94691.97;;;6.65;97.62
23166;BME280;11751;42.700;24.170;2022-10-16T03:44:04;94704.31;;;6.69;97.17
23166;BME280;11751;42.700;24.170;2022-10-16T03:46:30;94707.38;;;6.66;96.58
23166;BME280;11751;42.700;24.170;2022-10-16T03:48:55;94687.28;;;6.49;96.14
23166;BME280;11751;42.700;24.170;2022-10-16T03:51:21;94702.63;;;6.61;95.95
23166;BME280;11751;42.700;24.170;2022-10-16T03:53:46;94707.22;;;6.53;96.22
23166;BME280;11751;42.700;24.170;2022-10-16T03:56:13;94709.78;;;6.51;95.86
23166;BME280;11751;42.700;24.170;2022-10-16T03:58:38;94708.09;;;6.37;96.15
23166;BME280;11751;42.700;24.170;2022-10-16T04:01:04;94714.38;;;6.43;95.87
23166;BME280;11751;42.700;24.170;2022-10-16T04:03:29;94711.63;;;6.37;96.14
23166;BME280;11751;42.700;24.170;2022-10-16T04:05:55;94710.06;;;6.42;95.64
23166;BME280;11751;42.700;24.170;2022-10-16T04:08:20;94711.16;;;6.33;95.34
23166;BME280;11751;42.700;24.170;2022-10-16T04:10:46;94712.13;;;6.36;95.21
23166;BME280;11751;42.700;24.170;2022-10-16T04:13:12;94712.66;;;6.34;95.13
23166;BME280;11751;42.700;24.170;2022-10-16T04:15:37;94710.38;;;6.33;94.83
23166;BME280;11751;42.700;24.170;2022-10-16T04:18:03;94713.19;;;6.27;95.05
23166;BME280;11751;42.700;24.170;2022-10-16T04:20:28;94709.91;;;6.29;95.03
23166;BME280;11751;42.700;24.170;2022-10-16T04:22:54;94708.19;;;6.20;94.60
23166;BME280;11751;42.700;24.170;2022-10-16T04:25:20;94713.00;;;6.20;94.31
23166;BME280;11751;42.700;24.170;2022-10-16T04:27:45;94714.56;;;6.10;94.69
23166;BME280;11751;42.700;24.170;2022-10-16T04:30:11;94714.88;;;6.01;94.61
23166;BME280;11751;42.700;24.170;2022-10-16T04:32:36;94722.41;;;6.06;94.99
23166;BME280;11751;42.700;24.170;2022-10-16T04:35:02;94724.50;;;5.94;96.72
23166;BME280;11751;42.700;24.170;2022-10-16T04:37:28;94726.22;;;6.03;96.85
23166;BME280;11751;42.700;24.170;2022-10-16T04:39:53;94725.22;;;6.00;97.00
23166;BME280;11751;42.700;24.170;2022-10-16T04:42:20;94733.81;;;5.97;97.22
23166;BME280;11751;42.700;24.170;2022-10-16T07:12:56;94777.81;;;10.52;nan
23166;BME280;11751;42.700;24.170;2022-10-16T07:15:22;94848.50;;;10.71;nan
23166;BME280;11751;42.700;24.170;2022-10-16T07:17:47;94851.38;;;10.79;nan
23166;BME280;11751;42.700;24.170;2022-10-16T07:20:12;94859.88;;;10.99;nan
23166;BME280;11751;42.700;24.170;2022-10-16T07:22:38;94852.09;;;11.05;nan
23166;BME280;11751;42.700;24.170;2022-10-16T07:25:03;94847.53;;;11.15;nan
23166;BME280;11751;42.700;24.170;2022-10-16T07:27:29;94838.44;;;11.22;nan
23166;BME280;11751;42.700;24.170;2022-10-16T07:29:54;94839.94;;;11.36;nan
23166;BME280;11751;42.700;24.170;2022-10-16T07:32:20;94847.75;;;11.50;nan
23166;BME280;11751;42.700;24.170;2022-10-16T07:34:45;94847.88;;;11.58;nan
23166;BME280;11751;42.700;24.170;2022-10-16T07:37:12;94845.41;;;11.75;nan
23166;BME280;11751;42.700;24.170;2022-10-16T07:39:37;94845.13;;;11.86;nan
23166;BME280;11751;42.700;24.170;2022-10-16T07:42:03;94847.94;;;12.06;nan
23166;BME280;11751;42.700;24.170;2022-10-16T07:44:28;94852.09;;;12.12;nan
23166;BME280;11751;42.700;24.170;2022-10-16T07:46:53;94855.84;;;12.35;nan
23166;BME280;11751;42.700;24.170;2022-10-16T07:49:19;94860.88;;;12.57;nan
23166;BME280;11751;42.700;24.170;2022-10-16T07:51:44;94859.88;;;12.75;nan
23166;BME280;11751;42.700;24.170;2022-10-16T07:54:10;94859.97;;;12.90;nan
23166;BME280;11751;42.700;24.170;2022-10-16T07:56:35;94859.09;;;13.02;nan
23166;BME280;11751;42.700;24.170;2022-10-16T07:59:01;94836.97;;;12.99;nan
23166;BME280;11751;42.700;24.170;2022-10-16T08:01:26;94855.66;;;13.32;nan
23166;BME280;11751;42.700;24.170;2022-10-16T08:03:52;94857.75;;;12.96;nan
23166;BME280;11751;42.700;24.170;2022-10-16T08:06:19;94861.41;;;13.19;nan
23166;BME280;11751;42.700;24.170;2022-10-16T08:08:44;94854.03;;;13.44;nan
23166;BME280;11751;42.700;24.170;2022-10-16T08:11:10;94857.63;;;13.59;nan
23166;BME280;11751;42.700;24.170;2022-10-16T08:13:36;94858.88;;;13.43;nan
23166;BME280;11751;42.700;24.170;2022-10-16T08:16:02;94861.00;;;13.58;nan
23166;BME280;11751;42.700;24.170;2022-10-16T08:18:28;94871.16;;;13.75;nan
23166;BME280;11751;42.700;24.170;2022-10-16T08:20:58;94864.09;;;13.97;nan
23166;BME280;11751;42.700;24.170;2022-10-16T08:23:25;94867.72;;;14.12;nan
23166;BME280;11751;42.700;24.170;2022-10-16T08:25:55;94863.59;;;14.13;nan
23166;BME280;11751;42.700;24.170;2022-10-16T08:28:21;94848.56;;;14.26;nan
23166;BME280;11751;42.700;24.170;2022-10-16T08:30:47;94858.50;;;14.42;nan
23166;BME280;11751;42.700;24.170;2022-10-16T08:33:13;94843.28;;;14.45;nan
23166;BME280;11751;42.700;24.170;2022-10-16T08:35:38;94856.06;;;14.53;nan
23166;BME280;11751;42.700;24.170;2022-10-16T08:38:05;94847.97;;;14.57;nan
23166;BME280;11751;42.700;24.170;2022-10-16T08:40:32;94865.63;;;14.87;nan
23166;BME280;11751;42.700;24.170;2022-10-16T08:48:47;94854.50;;;14.89;nan
23166;BME280;11751;42.700;24.170;2022-10-16T08:51:34;94853.72;;;15.04;nan
23166;BME280;11751;42.700;24.170;2022-10-16T08:54:04;94852.56;;;15.07;nan
23166;BME280;11751;42.700;24.170;2022-10-16T08:56:33;94857.03;;;15.32;nan
23166;BME280;11751;42.700;24.170;2022-10-16T08:58:59;94857.97;;;15.35;nan
23166;BME280;11751;42.700;24.170;2022-10-16T09:01:39;94861.16;;;15.39;nan
23166;BME280;11751;42.700;24.170;2022-10-16T09:06:57;94848.88;;;15.51;nan
23166;BME280;11751;42.700;24.170;2022-10-16T09:12:24;94856.75;;;15.52;nan
23166;BME280;11751;42.700;24.170;2022-10-16T09:15:47;94858.00;;;15.20;nan
23166;BME280;11751;42.700;24.170;2022-10-16T09:20:57;94846.94;;;15.93;nan
23166;BME280;11751;42.700;24.170;2022-10-16T09:23:28;94847.28;;;15.97;nan
23166;BME280;11751;42.700;24.170;2022-10-16T09:25:55;94852.19;;;15.96;nan
23166;BME280;11751;42.700;24.170;2022-10-16T09:28:22;94843.72;;;15.96;nan
23166;BME280;11751;42.700;24.170;2022-10-16T09:30:47;94851.31;;;16.18;nan
23166;BME280;11751;42.700;24.170;2022-10-16T09:33:17;94850.84;;;16.29;nan
23166;BME280;11751;42.700;24.170;2022-10-16T09:35:46;94850.88;;;16.70;nan
23166;BME280;11751;42.700;24.170;2022-10-16T09:38:30;94853.47;;;16.76;nan
23166;BME280;11751;42.700;24.170;2022-10-16T09:40:58;94846.38;;;16.67;nan
23166;BME280;11751;42.700;24.170;2022-10-16T09:46:03;94837.00;;;16.82;nan
23166;BME280;11751;42.700;24.170;2022-10-16T09:51:05;94837.53;;;17.21;nan
23166;BME280;11751;42.700;24.170;2022-10-16T09:53:40;94824.97;;;16.98;nan
23166;BME280;11751;42.700;24.170;2022-10-16T09:56:06;94835.84;;;16.68;nan
23166;BME280;11751;42.700;24.170;2022-10-16T09:58:31;94827.78;;;17.15;nan
23166;BME280;11751;42.700;24.170;2022-10-16T10:00:58;94820.25;;;17.34;nan
23166;BME280;11751;42.700;24.170;2022-10-16T10:03:36;94827.06;;;17.31;nan
23166;BME280;11751;42.700;24.170;2022-10-16T10:06:13;94822.72;;;17.47;nan
23166;BME280;11751;42.700;24.170;2022-10-16T10:08:41;94813.69;;;17.58;nan
23166;BME280;11751;42.700;24.170;2022-10-16T10:11:07;94802.91;;;17.74;nan
23166;BME280;11751;42.700;24.170;2022-10-16T10:13:32;94806.25;;;17.80;nan
23166;BME280;11751;42.700;24.170;2022-10-16T10:15:57;94806.06;;;18.04;nan
23166;BME280;11751;42.700;24.170;2022-10-16T10:18:23;94800.97;;;18.02;nan
23166;BME280;11751;42.700;24.170;2022-10-16T10:20:59;94802.59;;;17.96;nan
23166;BME280;11751;42.700;24.170;2022-10-16T10:23:27;94800.69;;;17.99;nan
23166;BME280;11751;42.700;24.170;2022-10-16T10:26:18;94799.19;;;18.07;nan
23166;BME280;11751;42.700;24.170;2022-10-16T10:29:07;94801.84;;;18.22;nan
23166;BME280;11751;42.700;24.170;2022-10-16T10:40:17;94779.28;;;18.60;nan
23166;BME280;11751;42.700;24.170;2022-10-16T10:42:48;94786.56;;;18.53;nan
23166;BME280;11751;42.700;24.170;2022-10-16T10:50:46;94776.56;;;18.52;nan
23166;BME280;11751;42.700;24.170;2022-10-16T10:53:48;94767.78;;;18.58;nan
23166;BME280;11751;42.700;24.170;2022-10-16T10:56:42;94763.19;;;18.90;nan
23166;BME280;11751;42.700;24.170;2022-10-16T10:59:19;94758.88;;;19.08;nan
23166;BME280;11751;42.700;24.170;2022-10-16T11:01:56;94754.41;;;18.96;nan
23166;BME280;11751;42.700;24.170;2022-10-16T11:07:27;94754.84;;;18.92;nan
23166;BME280;11751;42.700;24.170;2022-10-16T11:09:58;94749.00;;;18.90;nan
23166;BME280;11751;42.700;24.170;2022-10-16T11:12:33;94735.19;;;18.30;nan
23166;BME280;11751;42.700;24.170;2022-10-16T11:17:41;94750.34;;;18.71;nan
23166;BME280;11751;42.700;24.170;2022-10-16T11:20:14;94761.13;;;19.00;nan
23166;BME280;11751;42.700;24.170;2022-10-16T11:25:40;94749.19;;;19.11;nan
23166;BME280;11751;42.700;24.170;2022-10-16T11:30:51;94740.22;;;19.15;nan
23166;BME280;11751;42.700;24.170;2022-10-16T11:36:08;94753.50;;;19.50;nan
23166;BME280;11751;42.700;24.170;2022-10-16T11:38:45;94747.97;;;19.43;nan
23166;BME280;11751;42.700;24.170;2022-10-16T11:41:32;94749.16;;;19.49;nan
23166;BME280;11751;42.700;24.170;2022-10-16T11:49:45;94738.38;;;19.57;nan
23166;BME280;11751;42.700;24.170;2022-10-16T11:52:31;94738.94;;;19.65;nan
23166;BME280;11751;42.700;24.170;2022-10-16T11:55:05;94744.31;;;19.80;nan
23166;BME280;11751;42.700;24.170;2022-10-16T11:58:05;94742.91;;;19.13;nan
23166;BME280;11751;42.700;24.170;2022-10-16T12:06:22;94744.38;;;19.04;nan
23166;BME280;11751;42.700;24.170;2022-10-16T12:08:50;94742.00;;;18.91;nan
23166;BME280;11751;42.700;24.170;2022-10-16T12:11:32;94743.78;;;19.34;nan
23166;BME280;11751;42.700;24.170;2022-10-16T12:14:06;94740.91;;;19.53;nan
23166;BME280;11751;42.700;24.170;2022-10-16T12:16:32;94724.06;;;19.46;nan
23166;BME280;11751;42.700;24.170;2022-10-16T12:19:13;94746.13;;;19.66;nan
23166;BME280;11751;42.700;24.170;2022-10-16T12:21:39;94745.56;;;19.58;nan
23166;BME280;11751;42.700;24.170;2022-10-16T12:24:05;94738.31;;;19.76;nan
23166;BME280;11751;42.700;24.170;2022-10-16T12:26:39;94747.00;;;19.69;nan
23166;BME280;11751;42.700;24.170;2022-10-16T12:29:34;94751.19;;;19.77;nan
23166;BME280;11751;42.700;24.170;2022-10-16T12:32:00;94741.63;;;19.82;nan
23166;BME280;11751;42.700;24.170;2022-10-16T12:34:41;94747.31;;;19.63;nan
23166;BME280;11751;42.700;24.170;2022-10-16T12:39:38;94741.09;;;19.36;nan
23166;BME280;11751;42.700;24.170;2022-10-16T12:42:06;94750.97;;;19.35;nan
23166;BME280;11751;42.700;24.170;2022-10-16T12:44:43;94740.50;;;19.09;nan
23166;BME280;11751;42.700;24.170;2022-10-16T12:49:56;94750.34;;;19.08;nan
23166;BME280;11751;42.700;24.170;2022-10-16T12:52:35;94753.34;;;18.91;nan
23166;BME280;11751;42.700;24.170;2022-10-16T12:55:01;94756.94;;;19.01;nan
23166;BME280;11751;42.700;24.170;2022-10-16T13:00:45;94747.53;;;19.08;nan
23166;BME280;11751;42.700;24.170;2022-10-16T13:03:40;94750.09;;;19.23;nan
23166;BME280;11751;42.700;24.170;2022-10-16T13:09:37;94759.94;;;19.03;nan
23166;BME280;11751;42.700;24.170;2022-10-16T13:28:27;94741.22;;;18.72;nan
23166;BME280;11751;42.700;24.170;2022-10-16T13:30:57;94748.53;;;18.66;nan
23166;BME280;11751;42.700;24.170;2022-10-16T13:33:32;94746.56;;;18.59;nan
23166;BME280;11751;42.700;24.170;2022-10-16T13:35:59;94752.84;;;18.57;nan
23166;BME280;11751;42.700;24.170;2022-10-16T13:38:26;94751.31;;;18.47;nan
23166;BME280;11751;42.700;24.170;2022-10-16T13:40:59;94753.91;;;18.62;nan
23166;BME280;11751;42.700;24.170;2022-10-16T13:43:37;94759.88;;;18.66;nan
23166;BME280;11751;42.700;24.170;2022-10-16T13:46:06;94755.13;;;18.78;nan
23166;BME280;11751;42.700;24.170;2022-10-16T13:48:33;94759.28;;;18.77;nan
23166;BME280;11751;42.700;24.170;2022-10-16T13:51:04;94756.91;;;18.73;nan
23166;BME280;11751;42.700;24.170;2022-10-16T13:53:32;94760.22;;;18.79;nan
23166;BME280;11751;42.700;24.170;2022-10-16T13:55:57;94767.22;;;18.78;nan
23166;BME280;11751;42.700;24.170;2022-10-16T13:58:25;94767.03;;;18.67;nan
23166;BME280;11751;42.700;24.170;2022-10-16T14:00:55;94761.31;;;18.48;nan
23166;BME280;11751;42.700;24.170;2022-10-16T14:03:21;94766.75;;;18.63;nan
23166;BME280;11751;42.700;24.170;2022-10-16T14:06:00;94757.59;;;18.45;nan
23166;BME280;11751;42.700;24.170;2022-10-16T14:08:27;94766.88;;;18.55;nan
23166;BME280;11751;42.700;24.170;2022-10-16T14:10:56;94772.69;;;18.48;nan
23166;BME280;11751;42.700;24.170;2022-10-16T14:13:45;94765.06;;;18.50;nan
23166;BME280;11751;42.700;24.170;2022-10-16T14:16:18;94773.09;;;18.35;nan
23166;BME280;11751;42.700;24.170;2022-10-16T14:18:46;94776.06;;;18.27;nan
23166;BME280;11751;42.700;24.170;2022-10-16T14:21:15;94776.94;;;17.94;nan
23166;BME280;11751;42.700;24.170;2022-10-16T14:23:42;94781.50;;;18.16;nan
23166;BME280;11751;42.700;24.170;2022-10-16T14:28:33;94782.91;;;17.98;nan
23166;BME280;11751;42.700;24.170;2022-10-16T14:31:00;94786.16;;;17.95;nan
23166;BME280;11751;42.700;24.170;2022-10-16T14:38:28;94787.56;;;17.77;nan
23166;BME280;11751;42.700;24.170;2022-10-16T14:40:57;94789.69;;;17.59;nan
23166;BME280;11751;42.700;24.170;2022-10-16T14:43:40;94796.44;;;17.64;nan
23166;BME280;11751;42.700;24.170;2022-10-16T14:46:12;94795.75;;;17.46;nan
23166;BME280;11751;42.700;24.170;2022-10-16T14:48:47;94786.28;;;17.34;nan
23166;BME280;11751;42.700;24.170;2022-10-16T14:51:18;94791.06;;;17.24;nan
23166;BME280;11751;42.700;24.170;2022-10-16T14:53:44;94795.66;;;17.20;nan
23166;BME280;11751;42.700;24.170;2022-10-16T14:56:19;94796.75;;;17.08;nan
23166;BME280;11751;42.700;24.170;2022-10-16T14:58:45;94808.81;;;16.91;nan
23166;BME280;11751;42.700;24.170;2022-10-16T15:01:11;94805.06;;;16.89;nan
23166;BME280;11751;42.700;24.170;2022-10-16T15:03:37;94809.25;;;16.88;nan
23166;BME280;11751;42.700;24.170;2022-10-16T15:06:03;94813.53;;;16.72;nan
23166;BME280;11751;42.700;24.170;2022-10-16T15:08:29;94817.59;;;16.61;nan
23166;BME280;11751;42.700;24.170;2022-10-16T15:10:54;94816.69;;;16.59;nan
23166;BME280;11751;42.700;24.170;2022-10-16T15:13:20;94820.16;;;16.50;nan
23166;BME280;11751;42.700;24.170;2022-10-16T15:15:47;94822.88;;;16.40;nan
23166;BME280;11751;42.700;24.170;2022-10-16T15:18:14;94818.44;;;16.30;nan
23166;BME280;11751;42.700;24.170;2022-10-16T15:20:45;94831.63;;;16.27;nan
23166;BME280;11751;42.700;24.170;2022-10-16T15:23:16;94828.22;;;16.29;nan
23166;BME280;11751;42.700;24.170;2022-10-16T15:25:56;94829.25;;;16.17;nan
23166;BME280;11751;42.700;24.170;2022-10-16T15:28:23;94829.22;;;15.92;nan
23166;BME280;11751;42.700;24.170;2022-10-16T15:30:53;94829.22;;;15.92;nan
23166;BME280;11751;42.700;24.170;2022-10-16T15:33:22;94827.84;;;15.76;nan
23166;BME280;11751;42.700;24.170;2022-10-16T15:35:51;94834.41;;;15.79;nan
23166;BME280;11751;42.700;24.170;2022-10-16T15:38:19;94847.84;;;15.63;nan
23166;BME280;11751;42.700;24.170;2022-10-16T15:40:46;94855.09;;;15.49;nan
23166;BME280;11751;42.700;24.170;2022-10-16T15:43:11;94859.56;;;15.52;nan
23166;BME280;11751;42.700;24.170;2022-10-16T15:45:37;94857.00;;;15.40;nan
23166;BME280;11751;42.700;24.170;2022-10-16T15:48:03;94868.34;;;15.25;nan
23166;BME280;11751;42.700;24.170;2022-10-16T15:50:29;94856.69;;;15.21;nan
23166;BME280;11751;42.700;24.170;2022-10-16T15:52:55;94865.91;;;15.29;nan
23166;BME280;11751;42.700;24.170;2022-10-16T15:55:20;94871.91;;;15.18;nan
23166;BME280;11751;42.700;24.170;2022-10-16T15:57:46;94873.59;;;15.21;nan
23166;BME280;11751;42.700;24.170;2022-10-16T16:00:15;94885.66;;;15.29;nan
23166;BME280;11751;42.700;24.170;2022-10-16T16:02:42;94896.19;;;15.06;nan
23166;BME280;11751;42.700;24.170;2022-10-16T16:05:09;94886.09;;;14.88;nan
23166;BME280;11751;42.700;24.170;2022-10-16T16:07:35;94894.53;;;14.95;nan
23166;BME280;11751;42.700;24.170;2022-10-16T16:10:02;94897.38;;;14.88;nan
23166;BME280;11751;42.700;24.170;2022-10-16T16:12:28;94907.16;;;14.79;nan
23166;BME280;11751;42.700;24.170;2022-10-16T16:14:53;94908.66;;;14.80;nan
23166;BME280;11751;42.700;24.170;2022-10-16T16:17:19;94912.63;;;14.77;nan
23166;BME280;11751;42.700;24.170;2022-10-16T16:19:45;94916.38;;;14.65;nan
23166;BME280;11751;42.700;24.170;2022-10-16T16:22:11;94924.47;;;14.53;nan
23166;BME280;11751;42.700;24.170;2022-10-16T16:24:36;94923.31;;;14.34;nan
23166;BME280;11751;42.700;24.170;2022-10-16T16:27:02;94934.97;;;14.23;nan
23166;BME280;11751;42.700;24.170;2022-10-16T16:29:27;94936.81;;;14.13;nan
23166;BME280;11751;42.700;24.170;2022-10-16T16:31:53;94930.38;;;14.05;nan
23166;BME280;11751;42.700;24.170;2022-10-16T16:34:24;94945.59;;;14.02;nan
23166;BME280;11751;42.700;24.170;2022-10-16T16:36:50;94948.00;;;13.98;nan
23166;BME280;11751;42.700;24.170;2022-10-16T16:39:16;94959.78;;;13.82;nan
23166;BME280;11751;42.700;24.170;2022-10-16T16:41:41;94959.16;;;13.68;nan
23166;BME280;11751;42.700;24.170;2022-10-16T16:44:08;94960.25;;;13.58;nan
23166;BME280;11751;42.700;24.170;2022-10-16T16:46:35;94970.53;;;13.48;nan
23166;BME280;11751;42.700;24.170;2022-10-16T16:49:02;94974.59;;;13.40;nan
23166;BME280;11751;42.700;24.170;2022-10-16T16:51:28;94978.84;;;13.26;nan
23166;BME280;11751;42.700;24.170;2022-10-16T16:53:55;94979.53;;;13.19;nan
23166;BME280;11751;42.700;24.170;2022-10-16T16:56:22;94985.13;;;13.11;nan
23166;BME280;11751;42.700;24.170;2022-10-16T16:58:50;94985.47;;;13.08;nan
23166;BME280;11751;42.700;24.170;2022-10-16T17:01:16;94996.19;;;12.89;nan
23166;BME280;11751;42.700;24.170;2022-10-16T17:03:43;94996.19;;;12.89;nan
23166;BME280;11751;42.700;24.170;2022-10-16T17:06:13;94992.09;;;12.70;nan
23166;BME280;11751;42.700;24.170;2022-10-16T17:08:40;94995.91;;;12.59;nan
23166;BME280;11751;42.700;24.170;2022-10-16T17:11:06;94994.97;;;12.36;nan
23166;BME280;11751;42.700;24.170;2022-10-16T17:13:37;95000.94;;;12.33;nan
23166;BME280;11751;42.700;24.170;2022-10-16T17:16:06;95007.47;;;11.82;nan
23166;BME280;11751;42.700;24.170;2022-10-16T17:18:35;95009.78;;;11.70;nan
23166;BME280;11751;42.700;24.170;2022-10-16T17:21:05;95000.84;;;11.59;nan
23166;BME280;11751;42.700;24.170;2022-10-16T17:23:31;95003.00;;;11.53;nan
23166;BME280;11751;42.700;24.170;2022-10-16T17:26:06;95012.06;;;11.33;nan
23166;BME280;11751;42.700;24.170;2022-10-16T17:28:33;95014.31;;;11.21;nan
23166;BME280;11751;42.700;24.170;2022-10-16T17:31:19;95011.84;;;11.18;nan
23166;BME280;11751;42.700;24.170;2022-10-16T17:33:45;95018.31;;;11.26;nan